sensor_id;sensor_type;location;lat;lon;timestamp;temperature;humidity
33476;DHT22;19814;48.224;11.422;2023-06-01T00:01:40;14.80;96.60
33476;DHT22;19814;48.224;11.422;2023-06-01T00:04:07;14.80;96.90
33476;DHT22;19814;48.224;11.422;2023-06-01T00:06:33;14.80;97.30
33476;DHT22;19814;48.224;11.422;2023-06-01T00:08:59;14.70;97.30
33476;DHT22;19814;48.224;11.422;2023-06-01T00:11:25;14.70;97.80
33476;DHT22;19814;48.224;11.422;2023-06-01T00:13:51;14.70;97.40
33476;DHT22;19814;48.224;11.422;2023-06-01T00:16:17;14.60;97.40
33476;DHT22;19814;48.224;11.422;2023-06-01T00:18:43;14.60;97.70
33476;DHT22;19814;48.224;11.422;2023-06-01T00:21:09;14.60;97.50
33476;DHT22;19814;48.224;11.422;2023-06-01T00:23:35;14.50;97.60
33476;DHT22;19814;48.224;11.422;2023-06-01T00:26:01;14.50;97.30
33476;DHT22;19814;48.224;11.422;2023-06-01T00:28:27;14.50;97.70
33476;DHT22;19814;48.224;11.422;2023-06-01T00:30:53;14.50;97.60
33476;DHT22;19814;48.224;11.422;2023-06-01T00:33:21;14.40;97.90
33476;DHT22;19814;48.224;11.422;2023-06-01T00:35:47;14.40;97.80
33476;DHT22;19814;48.224;11.422;2023-06-01T00:38:13;14.40;98.20
33476;DHT22;19814;48.224;11.422;2023-06-01T00:40:38;14.40;98.30
33476;DHT22;19814;48.224;11.422;2023-06-01T00:43:04;14.40;97.80
33476;DHT22;19814;48.224;11.422;2023-06-01T00:45:30;14.40;97.80
33476;DHT22;19814;48.224;11.422;2023-06-01T00:47:56;14.30;97.60
33476;DHT22;19814;48.224;11.422;2023-06-01T00:50:22;14.30;98.20
33476;DHT22;19814;48.224;11.422;2023-06-01T00:52:49;14.30;98.50
33476;DHT22;19814;48.224;11.422;2023-06-01T00:55:15;14.30;98.00
33476;DHT22;19814;48.224;11.422;2023-06-01T00:57:43;14.20;98.60
33476;DHT22;19814;48.224;11.422;2023-06-01T01:00:09;14.20;97.70
33476;DHT22;19814;48.224;11.422;2023-06-01T01:02:37;14.20;98.40
33476;DHT22;19814;48.224;11.422;2023-06-01T01:05:05;14.20;98.20
33476;DHT22;19814;48.224;11.422;2023-06-01T01:15:21;14.10;99.00
33476;DHT22;19814;48.224;11.422;2023-06-01T01:17:52;14.10;99.30
33476;DHT22;19814;48.224;11.422;2023-06-01T01:20:27;14.00;99.00
33476;DHT22;19814;48.224;11.422;2023-06-01T01:23:02;14.00;99.00
33476;DHT22;19814;48.224;11.422;2023-06-01T01:30:52;14.00;99.40
33476;DHT22;19814;48.224;11.422;2023-06-01T01:33:20;14.00;99.60
33476;DHT22;19814;48.224;11.422;2023-06-01T01:35:46;14.00;99.20
33476;DHT22;19814;48.224;11.422;2023-06-01T01:38:12;13.90;98.90
33476;DHT22;19814;48.224;11.422;2023-06-01T01:40:38;13.90;98.20
33476;DHT22;19814;48.224;11.422;2023-06-01T01:43:03;13.80;98.60
33476;DHT22;19814;48.224;11.422;2023-06-01T01:45:29;13.70;99.50
33476;DHT22;19814;48.224;11.422;2023-06-01T01:47:58;13.70;99.20
33476;DHT22;19814;48.224;11.422;2023-06-01T01:50:29;13.60;99.40
33476;DHT22;19814;48.224;11.422;2023-06-01T01:52:59;13.50;99.40
33476;DHT22;19814;48.224;11.422;2023-06-01T01:55:26;13.50;99.50
33476;DHT22;19814;48.224;11.422;2023-06-01T01:57:52;13.50;99.90
33476;DHT22;19814;48.224;11.422;2023-06-01T02:00:19;13.40;99.90
33476;DHT22;19814;48.224;11.422;2023-06-01T02:02:45;13.40;99.80
33476;DHT22;19814;48.224;11.422;2023-06-01T02:05:11;13.40;99.90
33476;DHT22;19814;48.224;11.422;2023-06-01T02:07:37;13.30;99.80
33476;DHT22;19814;48.224;11.422;2023-06-01T02:10:02;13.30;99.90
33476;DHT22;19814;48.224;11.422;2023-06-01T02:12:28;13.20;99.90
33476;DHT22;19814;48.224;11.422;2023-06-01T02:14:53;13.10;99.90
33476;DHT22;19814;48.224;11.422;2023-06-01T02:17:19;13.10;99.90
33476;DHT22;19814;48.224;11.422;2023-06-01T02:19:47;13.00;99.90
33476;DHT22;19814;48.224;11.422;2023-06-01T02:22:12;13.00;99.90
33476;DHT22;19814;48.224;11.422;2023-06-01T02:24:39;13.00;99.90
33476;DHT22;19814;48.224;11.422;2023-06-01T02:27:04;13.00;99.90
33476;DHT22;19814;48.224;11.422;2023-06-01T02:29:30;13.00;99.90
33476;DHT22;19814;48.224;11.422;2023-06-01T02:31:56;13.00;99.90
33476;DHT22;19814;48.224;11.422;2023-06-01T02:34:21;13.00;99.90
33476;DHT22;19814;48.224;11.422;2023-06-01T02:36:47;12.90;99.90
33476;DHT22;19814;48.224;11.422;2023-06-01T02:39:14;12.90;99.90
33476;DHT22;19814;48.224;11.422;2023-06-01T02:41:39;12.90;99.90
33476;DHT22;19814;48.224;11.422;2023-06-01T02:44:05;12.80;99.90
33476;DHT22;19814;48.224;11.422;2023-06-01T02:46:30;12.80;99.90
33476;DHT22;19814;48.224;11.422;2023-06-01T02:48:56;12.80;99.90
33476;DHT22;19814;48.224;11.422;2023-06-01T02:51:21;12.80;99.90
33476;DHT22;19814;48.224;11.422;2023-06-01T02:53:47;12.80;99.90
33476;DHT22;19814;48.224;11.422;2023-06-01T02:56:13;12.70;99.90
33476;DHT22;19814;48.224;11.422;2023-06-01T02:58:39;12.70;99.90
33476;DHT22;19814;48.224;11.422;2023-06-01T03:01:04;12.60;99.90
33476;DHT22;19814;48.224;11.422;2023-06-01T03:03:30;12.60;99.90
33476;DHT22;19814;48.224;11.422;2023-06-01T03:05:56;12.50;99.90
33476;DHT22;19814;48.224;11.422;2023-06-01T03:08:22;12.50;99.90
33476;DHT22;19814;48.224;11.422;2023-06-01T03:10:50;12.50;99.90
33476;DHT22;19814;48.224;11.422;2023-06-01T03:13:16;12.50;99.90
33476;DHT22;19814;48.224;11.422;2023-06-01T03:15:41;12.50;99.90
33476;DHT22;19814;48.224;11.422;2023-06-01T03:18:07;12.40;99.90
33476;DHT22;19814;48.224;11.422;2023-06-01T03:20:34;12.40;99.90
33476;DHT22;19814;48.224;11.422;2023-06-01T03:22:59;12.40;99.90
33476;DHT22;19814;48.224;11.422;2023-06-01T03:25:26;12.40;99.90
33476;DHT22;19814;48.224;11.422;2023-06-01T03:27:51;12.40;99.90
33476;DHT22;19814;48.224;11.422;2023-06-01T03:30:17;12.30;99.90
33476;DHT22;19814;48.224;11.422;2023-06-01T03:32:44;12.30;99.90
33476;DHT22;19814;48.224;11.422;2023-06-01T03:35:10;12.30;99.90
33476;DHT22;19814;48.224;11.422;2023-06-01T03:37:38;12.20;99.90
33476;DHT22;19814;48.224;11.422;2023-06-01T03:40:04;12.20;99.90
33476;DHT22;19814;48.224;11.422;2023-06-01T03:42:39;12.30;99.90
33476;DHT22;19814;48.224;11.422;2023-06-01T03:45:05;12.30;99.90
33476;DHT22;19814;48.224;11.422;2023-06-01T03:47:31;12.30;99.90
33476;DHT22;19814;48.224;11.422;2023-06-01T03:49:58;12.30;99.90
33476;DHT22;19814;48.224;11.422;2023-06-01T03:52:25;12.40;99.90
33476;DHT22;19814;48.224;11.422;2023-06-01T03:54:51;12.40;99.90
33476;DHT22;19814;48.224;11.422;2023-06-01T03:57:16;12.40;99.90
33476;DHT22;19814;48.224;11.422;2023-06-01T03:59:42;12.40;99.90
33476;DHT22;19814;48.224;11.422;2023-06-01T04:02:07;12.40;99.90
33476;DHT22;19814;48.224;11.422;2023-06-01T04:04:36;12.40;99.90
33476;DHT22;19814;48.224;11.422;2023-06-01T04:07:02;12.50;99.90
33476;DHT22;19814;48.224;11.422;2023-06-01T04:09:29;12.50;99.90
33476;DHT22;19814;48.224;11.422;2023-06-01T04:11:55;12.60;99.90
33476;DHT22;19814;48.224;11.422;2023-06-01T04:14:20;12.60;99.90
33476;DHT22;19814;48.224;11.422;2023-06-01T04:16:46;12.70;99.90
33476;DHT22;19814;48.224;11.422;2023-06-01T04:19:12;12.60;99.90
33476;DHT22;19814;48.224;11.422;2023-06-01T04:21:37;12.60;99.90
33476;DHT22;19814;48.224;11.422;2023-06-01T04:24:03;12.60;99.90
33476;DHT22;19814;48.224;11.422;2023-06-01T04:26:28;12.60;99.90
33476;DHT22;19814;48.224;11.422;2023-06-01T04:29:00;12.70;99.90
33476;DHT22;19814;48.224;11.422;2023-06-01T04:31:25;12.80;99.90
33476;DHT22;19814;48.224;11.422;2023-06-01T04:33:51;12.80;99.90
33476;DHT22;19814;48.224;11.422;2023-06-01T04:36:22;12.90;99.90
33476;DHT22;19814;48.224;11.422;2023-06-01T04:38:48;13.00;99.90
33476;DHT22;19814;48.224;11.422;2023-06-01T04:41:19;13.00;99.90
33476;DHT22;19814;48.224;11.422;2023-06-01T04:43:50;13.10;99.90
33476;DHT22;19814;48.224;11.422;2023-06-01T04:46:20;13.20;99.90
33476;DHT22;19814;48.224;11.422;2023-06-01T04:48:49;13.20;99.90
33476;DHT22;19814;48.224;11.422;2023-06-01T04:51:14;13.30;99.90
33476;DHT22;19814;48.224;11.422;2023-06-01T04:53:48;13.40;99.90
33476;DHT22;19814;48.224;11.422;2023-06-01T04:56:24;13.40;99.90
33476;DHT22;19814;48.224;11.422;2023-06-01T04:58:54;13.50;99.90
33476;DHT22;19814;48.224;11.422;2023-06-01T05:01:24;13.50;99.90
33476;DHT22;19814;48.224;11.422;2023-06-01T05:03:51;13.60;99.90
33476;DHT22;19814;48.224;11.422;2023-06-01T05:06:18;13.60;99.90
33476;DHT22;19814;48.224;11.422;2023-06-01T05:08:44;13.70;99.90
33476;DHT22;19814;48.224;11.422;2023-06-01T05:11:10;13.80;99.90
33476;DHT22;19814;48.224;11.422;2023-06-01T05:13:37;13.90;99.90
33476;DHT22;19814;48.224;11.422;2023-06-01T05:16:04;14.00;99.90
33476;DHT22;19814;48.224;11.422;2023-06-01T05:18:31;14.20;99.90
33476;DHT22;19814;48.224;11.422;2023-06-01T05:20:56;14.30;99.90
33476;DHT22;19814;48.224;11.422;2023-06-01T05:23:24;14.40;99.90
33476;DHT22;19814;48.224;11.422;2023-06-01T05:25:50;14.50;99.90
33476;DHT22;19814;48.224;11.422;2023-06-01T05:28:15;14.70;99.90
33476;DHT22;19814;48.224;11.422;2023-06-01T05:30:41;14.90;99.90
33476;DHT22;19814;48.224;11.422;2023-06-01T05:33:06;15.20;99.90
33476;DHT22;19814;48.224;11.422;2023-06-01T05:35:32;15.40;99.90
33476;DHT22;19814;48.224;11.422;2023-06-01T05:37:57;15.60;99.90
33476;DHT22;19814;48.224;11.422;2023-06-01T05:40:23;15.80;99.90
33476;DHT22;19814;48.224;11.422;2023-06-01T05:42:49;16.00;99.90
33476;DHT22;19814;48.224;11.422;2023-06-01T05:45:14;16.10;99.90
33476;DHT22;19814;48.224;11.422;2023-06-01T05:47:40;16.30;99.90
33476;DHT22;19814;48.224;11.422;2023-06-01T05:50:05;16.50;99.90
33476;DHT22;19814;48.224;11.422;2023-06-01T05:52:31;16.60;99.90
33476;DHT22;19814;48.224;11.422;2023-06-01T05:54:57;16.60;98.10
33476;DHT22;19814;48.224;11.422;2023-06-01T05:57:23;16.50;97.80
33476;DHT22;19814;48.224;11.422;2023-06-01T05:59:48;16.70;99.90
33476;DHT22;19814;48.224;11.422;2023-06-01T06:02:14;16.90;99.90
33476;DHT22;19814;48.224;11.422;2023-06-01T06:04:40;17.10;99.90
33476;DHT22;19814;48.224;11.422;2023-06-01T06:07:06;17.30;99.90
33476;DHT22;19814;48.224;11.422;2023-06-01T06:09:31;17.50;99.90
33476;DHT22;19814;48.224;11.422;2023-06-01T06:11:57;17.70;99.90
33476;DHT22;19814;48.224;11.422;2023-06-01T06:14:23;17.80;98.40
33476;DHT22;19814;48.224;11.422;2023-06-01T06:16:49;17.90;95.70
33476;DHT22;19814;48.224;11.422;2023-06-01T06:19:15;18.00;98.20
33476;DHT22;19814;48.224;11.422;2023-06-01T06:21:43;17.90;95.50
33476;DHT22;19814;48.224;11.422;2023-06-01T06:24:09;17.90;93.50
33476;DHT22;19814;48.224;11.422;2023-06-01T06:26:34;17.90;97.50
33476;DHT22;19814;48.224;11.422;2023-06-01T06:29:00;18.10;99.90
33476;DHT22;19814;48.224;11.422;2023-06-01T06:31:26;18.40;99.50
33476;DHT22;19814;48.224;11.422;2023-06-01T06:33:51;18.50;95.40
33476;DHT22;19814;48.224;11.422;2023-06-01T06:36:17;18.60;97.60
33476;DHT22;19814;48.224;11.422;2023-06-01T06:38:44;18.50;93.60
33476;DHT22;19814;48.224;11.422;2023-06-01T06:41:10;18.50;94.30
33476;DHT22;19814;48.224;11.422;2023-06-01T06:43:35;18.50;96.80
33476;DHT22;19814;48.224;11.422;2023-06-01T06:46:01;18.60;93.20
33476;DHT22;19814;48.224;11.422;2023-06-01T06:48:27;18.80;98.20
33476;DHT22;19814;48.224;11.422;2023-06-01T06:50:52;18.90;96.30
33476;DHT22;19814;48.224;11.422;2023-06-01T06:53:18;19.20;97.50
33476;DHT22;19814;48.224;11.422;2023-06-01T06:55:44;19.50;99.00
33476;DHT22;19814;48.224;11.422;2023-06-01T06:58:10;19.80;99.40
33476;DHT22;19814;48.224;11.422;2023-06-01T07:00:36;20.00;93.50
33476;DHT22;19814;48.224;11.422;2023-06-01T07:03:02;20.20;98.40
33476;DHT22;19814;48.224;11.422;2023-06-01T07:05:28;20.50;97.40
33476;DHT22;19814;48.224;11.422;2023-06-01T07:07:54;20.30;95.10
33476;DHT22;19814;48.224;11.422;2023-06-01T07:10:20;20.50;97.50
33476;DHT22;19814;48.224;11.422;2023-06-01T07:12:45;20.50;91.20
33476;DHT22;19814;48.224;11.422;2023-06-01T07:15:11;20.70;98.40
33476;DHT22;19814;48.224;11.422;2023-06-01T07:17:37;21.00;98.80
33476;DHT22;19814;48.224;11.422;2023-06-01T07:20:03;21.30;97.00
33476;DHT22;19814;48.224;11.422;2023-06-01T07:22:35;21.60;98.00
33476;DHT22;19814;48.224;11.422;2023-06-01T07:25:00;21.80;94.80
33476;DHT22;19814;48.224;11.422;2023-06-01T07:27:26;22.00;97.40
33476;DHT22;19814;48.224;11.422;2023-06-01T07:29:52;22.20;96.10
33476;DHT22;19814;48.224;11.422;2023-06-01T07:32:24;22.40;97.40
33476;DHT22;19814;48.224;11.422;2023-06-01T07:34:50;22.10;88.20
33476;DHT22;19814;48.224;11.422;2023-06-01T07:37:16;22.00;93.20
33476;DHT22;19814;48.224;11.422;2023-06-01T07:39:41;22.20;96.80
33476;DHT22;19814;48.224;11.422;2023-06-01T07:42:07;22.40;95.00
33476;DHT22;19814;48.224;11.422;2023-06-01T07:44:32;22.70;96.70
33476;DHT22;19814;48.224;11.422;2023-06-01T07:46:58;23.10;97.80
33476;DHT22;19814;48.224;11.422;2023-06-01T07:49:24;23.40;96.70
33476;DHT22;19814;48.224;11.422;2023-06-01T07:51:49;23.70;95.60
33476;DHT22;19814;48.224;11.422;2023-06-01T07:54:17;23.50;91.10
33476;DHT22;19814;48.224;11.422;2023-06-01T07:56:43;23.10;87.00
33476;DHT22;19814;48.224;11.422;2023-06-01T07:59:08;23.20;92.10
33476;DHT22;19814;48.224;11.422;2023-06-01T08:01:34;23.20;87.40
33476;DHT22;19814;48.224;11.422;2023-06-01T08:04:00;23.30;91.80
33476;DHT22;19814;48.224;11.422;2023-06-01T08:06:27;23.30;93.90
33476;DHT22;19814;48.224;11.422;2023-06-01T08:08:53;23.60;91.60
33476;DHT22;19814;48.224;11.422;2023-06-01T08:11:18;23.70;93.80
33476;DHT22;19814;48.224;11.422;2023-06-01T08:13:44;24.20;96.20
33476;DHT22;19814;48.224;11.422;2023-06-01T08:16:12;24.50;95.20
33476;DHT22;19814;48.224;11.422;2023-06-01T08:18:40;24.90;94.30
33476;DHT22;19814;48.224;11.422;2023-06-01T08:21:06;24.80;93.30
33476;DHT22;19814;48.224;11.422;2023-06-01T08:23:34;25.20;92.60
33476;DHT22;19814;48.224;11.422;2023-06-01T08:26:02;25.60;94.20
33476;DHT22;19814;48.224;11.422;2023-06-01T08:28:28;25.80;94.00
33476;DHT22;19814;48.224;11.422;2023-06-01T08:30:53;26.00;93.20
33476;DHT22;19814;48.224;11.422;2023-06-01T08:33:19;26.30;93.50
33476;DHT22;19814;48.224;11.422;2023-06-01T08:35:44;26.50;94.10
33476;DHT22;19814;48.224;11.422;2023-06-01T08:38:10;26.70;92.60
33476;DHT22;19814;48.224;11.422;2023-06-01T08:40:36;26.80;84.00
33476;DHT22;19814;48.224;11.422;2023-06-01T08:43:19;26.50;76.60
33476;DHT22;19814;48.224;11.422;2023-06-01T08:45:46;26.20;80.10
33476;DHT22;19814;48.224;11.422;2023-06-01T08:48:16;26.20;93.50
33476;DHT22;19814;48.224;11.422;2023-06-01T08:50:49;26.60;93.10
33476;DHT22;19814;48.224;11.422;2023-06-01T08:53:20;26.40;73.40
33476;DHT22;19814;48.224;11.422;2023-06-01T08:55:51;25.80;90.30
33476;DHT22;19814;48.224;11.422;2023-06-01T08:58:17;26.30;93.30
33476;DHT22;19814;48.224;11.422;2023-06-01T09:00:50;26.70;93.80
33476;DHT22;19814;48.224;11.422;2023-06-01T09:03:19;26.60;76.10
33476;DHT22;19814;48.224;11.422;2023-06-01T09:05:45;26.00;84.20
33476;DHT22;19814;48.224;11.422;2023-06-01T09:08:11;26.20;87.10
33476;DHT22;19814;48.224;11.422;2023-06-01T09:10:37;26.40;83.50
33476;DHT22;19814;48.224;11.422;2023-06-01T09:13:03;25.80;76.10
33476;DHT22;19814;48.224;11.422;2023-06-01T09:15:29;25.60;76.20
33476;DHT22;19814;48.224;11.422;2023-06-01T09:18:05;26.00;92.70
33476;DHT22;19814;48.224;11.422;2023-06-01T09:20:31;26.70;92.30
33476;DHT22;19814;48.224;11.422;2023-06-01T09:22:57;27.20;90.30
33476;DHT22;19814;48.224;11.422;2023-06-01T09:25:25;27.30;79.50
33476;DHT22;19814;48.224;11.422;2023-06-01T09:27:53;26.80;75.50
33476;DHT22;19814;48.224;11.422;2023-06-01T09:30:22;26.80;90.30
33476;DHT22;19814;48.224;11.422;2023-06-01T09:32:49;27.20;74.80
33476;DHT22;19814;48.224;11.422;2023-06-01T09:35:46;27.00;75.90
33476;DHT22;19814;48.224;11.422;2023-06-01T09:38:19;26.60;86.00
33476;DHT22;19814;48.224;11.422;2023-06-01T09:40:56;27.00;70.30
33476;DHT22;19814;48.224;11.422;2023-06-01T09:43:22;26.70;78.70
33476;DHT22;19814;48.224;11.422;2023-06-01T09:46:08;26.80;71.10
33476;DHT22;19814;48.224;11.422;2023-06-01T09:48:34;26.70;67.30
33476;DHT22;19814;48.224;11.422;2023-06-01T09:51:00;26.60;69.30
33476;DHT22;19814;48.224;11.422;2023-06-01T09:53:25;26.00;65.00
33476;DHT22;19814;48.224;11.422;2023-06-01T09:55:59;26.00;65.20
33476;DHT22;19814;48.224;11.422;2023-06-01T09:58:26;26.00;74.60
33476;DHT22;19814;48.224;11.422;2023-06-01T10:00:52;26.50;75.50
33476;DHT22;19814;48.224;11.422;2023-06-01T10:03:20;26.80;80.00
33476;DHT22;19814;48.224;11.422;2023-06-01T10:05:47;26.50;67.60
33476;DHT22;19814;48.224;11.422;2023-06-01T10:08:15;26.40;75.70
33476;DHT22;19814;48.224;11.422;2023-06-01T10:10:44;26.80;73.60
33476;DHT22;19814;48.224;11.422;2023-06-01T10:13:11;26.80;70.80
33476;DHT22;19814;48.224;11.422;2023-06-01T10:15:36;27.20;71.20
33476;DHT22;19814;48.224;11.422;2023-06-01T10:18:06;27.70;69.50
33476;DHT22;19814;48.224;11.422;2023-06-01T10:20:36;27.40;63.20
33476;DHT22;19814;48.224;11.422;2023-06-01T10:23:03;27.40;80.40
33476;DHT22;19814;48.224;11.422;2023-06-01T10:25:34;28.00;66.50
33476;DHT22;19814;48.224;11.422;2023-06-01T10:28:03;27.80;62.70
33476;DHT22;19814;48.224;11.422;2023-06-01T10:30:29;28.10;81.00
33476;DHT22;19814;48.224;11.422;2023-06-01T10:32:55;28.80;73.90
33476;DHT22;19814;48.224;11.422;2023-06-01T10:40:37;28.30;75.50
33476;DHT22;19814;48.224;11.422;2023-06-01T10:43:03;28.90;72.80
33476;DHT22;19814;48.224;11.422;2023-06-01T10:45:38;29.30;66.20
33476;DHT22;19814;48.224;11.422;2023-06-01T10:48:06;29.60;77.80
33476;DHT22;19814;48.224;11.422;2023-06-01T10:50:34;30.10;70.70
33476;DHT22;19814;48.224;11.422;2023-06-01T10:53:27;30.40;66.00
33476;DHT22;19814;48.224;11.422;2023-06-01T10:56:18;30.00;69.10
33476;DHT22;19814;48.224;11.422;2023-06-01T10:58:46;30.10;69.00
33476;DHT22;19814;48.224;11.422;2023-06-01T11:01:19;29.20;68.70
33476;DHT22;19814;48.224;11.422;2023-06-01T11:03:46;28.60;64.00
33476;DHT22;19814;48.224;11.422;2023-06-01T11:06:29;28.60;60.90
33476;DHT22;19814;48.224;11.422;2023-06-01T11:09:00;28.60;62.80
33476;DHT22;19814;48.224;11.422;2023-06-01T11:14:24;29.30;59.60
33476;DHT22;19814;48.224;11.422;2023-06-01T11:16:52;29.40;68.40
33476;DHT22;19814;48.224;11.422;2023-06-01T11:19:24;29.20;75.20
33476;DHT22;19814;48.224;11.422;2023-06-01T11:22:00;29.60;66.90
33476;DHT22;19814;48.224;11.422;2023-06-01T11:24:35;29.10;71.80
33476;DHT22;19814;48.224;11.422;2023-06-01T11:27:06;29.30;81.00
33476;DHT22;19814;48.224;11.422;2023-06-01T11:29:33;29.20;61.90
33476;DHT22;19814;48.224;11.422;2023-06-01T11:32:00;29.30;73.50
33476;DHT22;19814;48.224;11.422;2023-06-01T11:34:34;29.50;74.50
33476;DHT22;19814;48.224;11.422;2023-06-01T11:37:00;29.80;79.70
33476;DHT22;19814;48.224;11.422;2023-06-01T11:39:27;30.20;71.00
33476;DHT22;19814;48.224;11.422;2023-06-01T11:42:11;30.10;69.30
33476;DHT22;19814;48.224;11.422;2023-06-01T11:44:39;30.20;72.70
33476;DHT22;19814;48.224;11.422;2023-06-01T11:47:06;30.60;76.40
33476;DHT22;19814;48.224;11.422;2023-06-01T11:49:45;31.10;75.70
33476;DHT22;19814;48.224;11.422;2023-06-01T11:52:13;31.40;67.10
33476;DHT22;19814;48.224;11.422;2023-06-01T11:54:39;30.80;64.30
33476;DHT22;19814;48.224;11.422;2023-06-01T11:57:05;29.90;57.60
33476;DHT22;19814;48.224;11.422;2023-06-01T11:59:38;29.50;69.20
33476;DHT22;19814;48.224;11.422;2023-06-01T12:05:03;28.90;63.40
33476;DHT22;19814;48.224;11.422;2023-06-01T12:07:32;28.70;67.50
33476;DHT22;19814;48.224;11.422;2023-06-01T12:10:10;28.80;62.40
33476;DHT22;19814;48.224;11.422;2023-06-01T12:12:36;28.70;63.30
33476;DHT22;19814;48.224;11.422;2023-06-01T12:15:03;28.70;71.50
33476;DHT22;19814;48.224;11.422;2023-06-01T12:17:49;28.40;68.90
33476;DHT22;19814;48.224;11.422;2023-06-01T12:20:31;28.50;62.40
33476;DHT22;19814;48.224;11.422;2023-06-01T12:22:58;28.30;72.50
33476;DHT22;19814;48.224;11.422;2023-06-01T12:25:25;28.40;69.80
33476;DHT22;19814;48.224;11.422;2023-06-01T12:28:20;28.60;76.40
33476;DHT22;19814;48.224;11.422;2023-06-01T12:30:47;28.70;75.70
33476;DHT22;19814;48.224;11.422;2023-06-01T12:33:32;28.80;78.60
33476;DHT22;19814;48.224;11.422;2023-06-01T12:35:59;28.80;74.10
33476;DHT22;19814;48.224;11.422;2023-06-01T12:38:25;28.80;75.80
33476;DHT22;19814;48.224;11.422;2023-06-01T12:41:11;28.80;63.40
33476;DHT22;19814;48.224;11.422;2023-06-01T12:43:47;27.60;61.00
33476;DHT22;19814;48.224;11.422;2023-06-01T12:46:29;27.20;73.00
33476;DHT22;19814;48.224;11.422;2023-06-01T12:51:37;26.70;65.40
33476;DHT22;19814;48.224;11.422;2023-06-01T12:54:03;26.80;72.80
33476;DHT22;19814;48.224;11.422;2023-06-01T12:56:29;26.90;74.50
33476;DHT22;19814;48.224;11.422;2023-06-01T12:58:55;27.10;74.90
33476;DHT22;19814;48.224;11.422;2023-06-01T13:01:20;27.20;64.20
33476;DHT22;19814;48.224;11.422;2023-06-01T13:03:46;27.30;79.10
33476;DHT22;19814;48.224;11.422;2023-06-01T13:06:11;27.30;75.50
33476;DHT22;19814;48.224;11.422;2023-06-01T13:08:37;27.40;74.70
33476;DHT22;19814;48.224;11.422;2023-06-01T13:11:03;27.60;78.50
33476;DHT22;19814;48.224;11.422;2023-06-01T13:13:29;27.80;76.40
33476;DHT22;19814;48.224;11.422;2023-06-01T13:15:55;28.00;80.30
33476;DHT22;19814;48.224;11.422;2023-06-01T13:18:20;28.20;77.00
33476;DHT22;19814;48.224;11.422;2023-06-01T13:20:46;28.30;79.40
33476;DHT22;19814;48.224;11.422;2023-06-01T13:23:12;28.50;78.50
33476;DHT22;19814;48.224;11.422;2023-06-01T13:25:39;28.60;78.40
33476;DHT22;19814;48.224;11.422;2023-06-01T13:28:05;28.60;79.50
33476;DHT22;19814;48.224;11.422;2023-06-01T13:30:31;28.70;76.80
33476;DHT22;19814;48.224;11.422;2023-06-01T13:32:59;28.60;69.50
33476;DHT22;19814;48.224;11.422;2023-06-01T13:35:25;28.50;76.80
33476;DHT22;19814;48.224;11.422;2023-06-01T13:37:51;28.60;79.70
33476;DHT22;19814;48.224;11.422;2023-06-01T13:40:17;28.60;80.40
33476;DHT22;19814;48.224;11.422;2023-06-01T13:42:49;28.50;72.40
33476;DHT22;19814;48.224;11.422;2023-06-01T13:45:15;28.40;71.30
33476;DHT22;19814;48.224;11.422;2023-06-01T13:47:41;28.30;70.70
33476;DHT22;19814;48.224;11.422;2023-06-01T13:50:07;28.10;73.80
33476;DHT22;19814;48.224;11.422;2023-06-01T13:52:33;28.00;75.40
33476;DHT22;19814;48.224;11.422;2023-06-01T13:54:59;28.00;73.40
33476;DHT22;19814;48.224;11.422;2023-06-01T13:57:24;28.00;81.50
33476;DHT22;19814;48.224;11.422;2023-06-01T13:59:50;28.00;72.60
33476;DHT22;19814;48.224;11.422;2023-06-01T14:02:15;27.90;68.90
33476;DHT22;19814;48.224;11.422;2023-06-01T14:04:41;27.80;73.90
33476;DHT22;19814;48.224;11.422;2023-06-01T14:07:06;27.80;80.60
33476;DHT22;19814;48.224;11.422;2023-06-01T14:09:32;27.80;75.70
33476;DHT22;19814;48.224;11.422;2023-06-01T14:11:57;27.80;77.50
33476;DHT22;19814;48.224;11.422;2023-06-01T14:14:23;27.80;77.00
33476;DHT22;19814;48.224;11.422;2023-06-01T14:16:49;27.80;74.20
33476;DHT22;19814;48.224;11.422;2023-06-01T14:19:14;27.70;78.40
33476;DHT22;19814;48.224;11.422;2023-06-01T14:21:40;27.70;77.70
33476;DHT22;19814;48.224;11.422;2023-06-01T14:24:06;27.70;79.50
33476;DHT22;19814;48.224;11.422;2023-06-01T14:26:31;27.60;80.70
33476;DHT22;19814;48.224;11.422;2023-06-01T14:28:57;27.60;78.10
33476;DHT22;19814;48.224;11.422;2023-06-01T14:31:22;27.70;78.10
33476;DHT22;19814;48.224;11.422;2023-06-01T14:33:48;27.70;79.10
33476;DHT22;19814;48.224;11.422;2023-06-01T14:36:15;27.70;74.80
33476;DHT22;19814;48.224;11.422;2023-06-01T14:38:40;27.70;79.90
33476;DHT22;19814;48.224;11.422;2023-06-01T14:41:06;27.70;77.40
33476;DHT22;19814;48.224;11.422;2023-06-01T14:43:32;27.70;78.50
33476;DHT22;19814;48.224;11.422;2023-06-01T14:45:58;27.70;76.50
33476;DHT22;19814;48.224;11.422;2023-06-01T14:48:24;27.70;75.60
33476;DHT22;19814;48.224;11.422;2023-06-01T14:50:50;27.70;77.50
33476;DHT22;19814;48.224;11.422;2023-06-01T14:53:16;27.60;78.20
33476;DHT22;19814;48.224;11.422;2023-06-01T14:55:42;27.50;75.70
33476;DHT22;19814;48.224;11.422;2023-06-01T14:58:08;27.50;78.60
33476;DHT22;19814;48.224;11.422;2023-06-01T15:00:34;27.50;80.80
33476;DHT22;19814;48.224;11.422;2023-06-01T15:03:00;27.40;81.80
33476;DHT22;19814;48.224;11.422;2023-06-01T15:05:26;27.40;77.10
33476;DHT22;19814;48.224;11.422;2023-06-01T15:07:53;27.40;82.30
33476;DHT22;19814;48.224;11.422;2023-06-01T15:10:18;27.40;75.70
33476;DHT22;19814;48.224;11.422;2023-06-01T15:12:44;27.30;75.80
33476;DHT22;19814;48.224;11.422;2023-06-01T15:15:09;27.30;76.30
33476;DHT22;19814;48.224;11.422;2023-06-01T15:17:35;27.20;77.60
33476;DHT22;19814;48.224;11.422;2023-06-01T15:20:01;27.20;77.80
33476;DHT22;19814;48.224;11.422;2023-06-01T15:22:26;27.20;80.60
33476;DHT22;19814;48.224;11.422;2023-06-01T15:24:52;27.20;78.90
33476;DHT22;19814;48.224;11.422;2023-06-01T15:27:17;27.20;77.20
33476;DHT22;19814;48.224;11.422;2023-06-01T15:29:45;27.20;78.80
33476;DHT22;19814;48.224;11.422;2023-06-01T15:32:10;27.10;77.70
33476;DHT22;19814;48.224;11.422;2023-06-01T15:34:36;27.00;63.60
33476;DHT22;19814;48.224;11.422;2023-06-01T15:37:09;26.90;72.40
33476;DHT22;19814;48.224;11.422;2023-06-01T15:39:35;26.80;76.20
33476;DHT22;19814;48.224;11.422;2023-06-01T15:42:06;26.80;75.70
33476;DHT22;19814;48.224;11.422;2023-06-01T15:44:32;26.80;78.60